No particular awareness of the weather is required.    There are no Weather-warnings


Meteo18 Weather Cam more information Meteo18 Weather Cam


Thunder radar more information blitzortung!


Rain radar more information rain snow radar


Visit our other weather sites:

Template documentation
and downloads

And another site



Weather Underground History page Text

Daily Summary for March 31, 2017 Units:  English    Metric   Both
« Previous Day
Next Day »
Daily Weekly Monthly Yearly Custom
  High: Low: Average:
Temperature: TemperatureC °F 9.0 °F 12.7 °F
Dew Point: DewpointC °F 3.1 °F 8 °F
Humidity: Humidity % 48 % 73 %
Wind Speed: WindSpeedKMH mph 0.0 mph 4.3 mph
Wind Gust: WindSpeedGustKMH mph - -
Wind:- - SSW
Pressure: PressurehPa in 1015.5 in -
Precipitation: 4.1 in    
Historical Graphs
 
 
Tabular Data for March 31, 2017
Time Temperature Dew Point Pressure Wind Wind Speed Wind Gust Humidity Rainfall Rate (Hourly)
TemperatureC °F DewpointC °F PressurehPa in Calm     Humidity % HourlyPrecipMM in
00:02 13.9 °F 8.1 °F 1018.8 in Calm     68 % 0.0 in
00:07 13.8 °F 8.0 °F 1018.8 in Calm     68 % 0.0 in
00:12 13.6 °F 8.0 °F 1018.8 in Calm     69 % 0.0 in
00:17 13.6 °F 8.0 °F 1018.8 in Calm     69 % 0.0 in
00:22 13.5 °F 8.1 °F 1018.8 in Calm     70 % 0.0 in
00:32 13.7 °F 8.3 °F 1018.8 in Calm     70 % 0.0 in
00:37 14.2 °F 8.4 °F 1018.8 in Calm     68 % 0.0 in
00:42 14.3 °F 8.3 °F 1018.8 in Calm     67 % 0.0 in
00:52 14.2 °F 8.2 °F 1018.8 in Calm     67 % 0.0 in
00:57 13.9 °F 8.1 °F 1018.8 in Calm     68 % 0.0 in
01:02 13.6 °F 8.0 °F 1018.8 in Calm     69 % 0.0 in
01:12 13.2 °F 7.8 °F 1018.8 in Calm     70 % 0.0 in
01:17 12.8 °F 7.7 °F 1018.8 in Calm     71 % 0.0 in
01:22 12.6 °F 7.7 °F 1018.8 in Calm     72 % 0.0 in
01:27 12.4 °F 7.7 °F 1018.8 in Calm     73 % 0.0 in
01:32 12.4 °F 7.9 °F 1018.8 in Calm     74 % 0.0 in
01:42 12.6 °F 8.1 °F 1018.5 in West 1.6 mph   74 % 0.0 in
01:47 12.9 °F 8.6 °F 1018.5 in Calm   3.2 mph 75 % 0.0 in
01:52 13.3 °F 8.6 °F 1018.5 in WSW 1.6 mph 3.2 mph 73 % 0.0 in
02:02 13.6 °F 8.6 °F 1018.5 in Calm   3.2 mph 72 % 0.0 in
02:12 13.3 °F 8.4 °F 1018.5 in Calm   1.6 mph 72 % 0.0 in
02:17 13.0 °F 8.1 °F 1018.8 in Calm   1.6 mph 72 % 0.0 in
02:22 12.5 °F 8.0 °F 1018.8 in Calm   1.6 mph 74 % 0.0 in
02:32 12.6 °F 8.3 °F 1018.5 in ENE 1.6 mph 3.2 mph 75 % 0.0 in
02:42 12.5 °F 8.0 °F 1018.5 in Calm   3.2 mph 74 % 0.0 in
02:47 12.6 °F 7.9 °F 1018.5 in Calm   1.6 mph 73 % 0.0 in
02:52 12.6 °F 7.9 °F 1018.5 in North 3.2 mph 3.2 mph 73 % 0.0 in
02:57 12.2 °F 7.9 °F 1018.5 in Calm   3.2 mph 75 % 0.0 in
03:07 12.4 °F 7.5 °F 1018.5 in Calm   3.2 mph 72 % 0.0 in
03:12 12.3 °F 7.8 °F 1018.2 in Calm   3.2 mph 74 % 0.0 in
03:17 12.0 °F 7.5 °F 1018.2 in Calm   1.6 mph 74 % 0.0 in
03:22 11.8 °F 7.3 °F 1018.5 in Calm   1.6 mph 74 % 0.0 in
03:32 11.4 °F 7.3 °F 1018.2 in Calm     76 % 0.0 in
03:42 11.1 °F 7.4 °F 1018.2 in Calm     78 % 0.0 in
03:47 11.0 °F 7.3 °F 1017.8 in Calm     78 % 0.0 in
03:52 11.3 °F 7.0 °F 1018.2 in Calm   1.6 mph 75 % 0.0 in
03:57 11.3 °F 6.8 °F 1017.8 in Calm   1.6 mph 74 % 0.0 in
04:02 11.1 °F 6.8 °F 1017.8 in Calm   1.6 mph 75 % 0.0 in
04:12 10.7 °F 6.8 °F 1017.8 in Calm   1.6 mph 77 % 0.0 in
04:17 10.6 °F 6.7 °F 1017.8 in Calm     77 % 0.0 in
04:22 10.5 °F 6.6 °F 1017.8 in Calm     77 % 0.0 in
04:27 10.5 °F 6.6 °F 1017.8 in NE 1.6 mph   77 % 0.0 in
04:32 10.4 °F 6.5 °F 1017.5 in Calm     77 % 0.0 in
04:42 10.2 °F 6.7 °F 1017.5 in Calm   1.6 mph 79 % 0.0 in
04:47 10.2 °F 6.7 °F 1017.5 in Calm   1.6 mph 79 % 0.0 in
04:52 10.3 °F 6.6 °F 1017.5 in Calm   1.6 mph 78 % 0.0 in
04:57 10.4 °F 6.7 °F 1017.5 in Calm   1.6 mph 78 % 0.0 in
05:02 10.2 °F 6.2 °F 1017.5 in Calm     76 % 0.0 in
05:12 10.1 °F 6.4 °F 1017.5 in Calm     78 % 0.0 in
05:22 10.1 °F 5.5 °F 1017.2 in Calm     73 % 0.0 in
05:32 9.6 °F 5.6 °F 1017.2 in Calm     76 % 0.0 in
05:37 9.6 °F 5.4 °F 1017.2 in Calm     75 % 0.0 in
05:42 9.8 °F 5.4 °F 1017.2 in Calm     74 % 0.0 in
05:52 9.8 °F 5.6 °F 1017.2 in Calm     75 % 0.0 in
06:02 9.3 °F 5.1 °F 1017.2 in Calm     75 % 0.0 in
06:12 9.4 °F 4.6 °F 1017.2 in Calm     72 % 0.0 in
06:17 9.4 °F 4.4 °F 1017.2 in Calm     71 % 0.0 in
06:22 9.5 °F 4.3 °F 1017.2 in Calm     70 % 0.0 in
06:32 9.3 °F 4.1 °F 1017.2 in Calm     70 % 0.0 in
06:37 9.2 °F 3.8 °F 1016.8 in Calm     69 % 0.0 in
06:42 9.2 °F 3.6 °F 1017.2 in Calm     68 % 0.0 in
06:47 9.4 °F 3.8 °F 1017.2 in Calm     68 % 0.0 in
06:52 9.4 °F 3.6 °F 1017.2 in Calm     67 % 0.0 in
07:02 9.8 °F 3.1 °F 1017.2 in Calm     63 % 0.0 in
07:07 9.6 °F 3.3 °F 1017.2 in Calm     65 % 0.0 in
07:12 9.6 °F 3.3 °F 1017.2 in Calm     65 % 0.0 in
07:17 9.7 °F 3.2 °F 1017.2 in Calm     64 % 0.0 in
07:22 9.6 °F 3.1 °F 1017.2 in Calm     64 % 0.0 in
07:27 9.4 °F 3.2 °F 1017.2 in Calm     65 % 0.0 in
07:32 9.3 °F 3.1 °F 1017.2 in Calm     65 % 0.0 in
07:42 9.1 °F 3.3 °F 1017.5 in NW 3.2 mph   67 % 0.0 in
07:47 9.3 °F 3.1 °F 1017.2 in NW 1.6 mph   65 % 0.0 in
07:57 9.6 °F 3.1 °F 1017.2 in Calm   3.2 mph 64 % 0.0 in
08:02 9.3 °F 3.1 °F 1017.5 in Calm   1.6 mph 65 % 0.0 in
08:12 9.1 °F 3.3 °F 1017.5 in Calm   1.6 mph 67 % 0.0 in
08:17 9.0 °F 3.4 °F 1017.5 in South 1.6 mph 1.6 mph 68 % 0.0 in
08:22 9.1 °F 3.5 °F 1017.5 in South 1.6 mph 3.2 mph 68 % 0.0 in
08:32 9.4 °F 3.4 °F 1017.5 in Calm   3.2 mph 66 % 0.0 in
08:37 9.4 °F 3.4 °F 1017.5 in Calm   3.2 mph 66 % 0.0 in
08:42 9.6 °F 3.8 °F 1017.5 in Calm   1.6 mph 67 % 0.0 in
08:47 9.6 °F 3.8 °F 1017.8 in Calm   1.6 mph 67 % 0.0 in
08:52 9.7 °F 3.9 °F 1017.8 in Calm   3.2 mph 67 % 0.0 in
09:02 9.9 °F 4.5 °F 1017.8 in Calm   3.2 mph 69 % 0.0 in
09:12 10.4 °F 4.7 °F 1017.8 in Calm   4.8 mph 68 % 0.0 in
09:17 10.6 °F 4.9 °F 1017.8 in South 1.6 mph 4.8 mph 68 % 0.0 in
09:22 10.7 °F 5.0 °F 1017.8 in Calm   4.8 mph 68 % 0.0 in
09:32 11.2 °F 5.3 °F 1017.8 in South 3.2 mph 4.8 mph 67 % 0.0 in
09:37 11.4 °F 5.3 °F 1017.8 in SSW 4.8 mph 4.8 mph 66 % 0.0 in
09:42 11.7 °F 5.6 °F 1017.8 in SSW 3.2 mph 8.0 mph 66 % 0.0 in
09:47 11.9 °F 5.7 °F 1017.8 in South 6.4 mph 8.0 mph 66 % 0.0 in
09:52 12.3 °F 5.5 °F 1017.8 in South 4.8 mph 9.7 mph 63 % 0.0 in
10:02 12.8 °F 5.7 °F 1018.2 in South 6.4 mph 11.3 mph 62 % 0.0 in
10:12 13.1 °F 6.0 °F 1018.2 in SSW 1.6 mph 11.3 mph 62 % 0.0 in
10:22 13.6 °F 5.7 °F 1018.2 in SSW 3.2 mph 11.3 mph 59 % 0.0 in
10:32 14.1 °F 6.5 °F 1018.5 in SE 4.8 mph 11.3 mph 60 % 0.0 in
10:42 14.6 °F 6.4 °F 1018.5 in SE 6.4 mph 9.7 mph 58 % 0.0 in
10:47 14.8 °F 6.6 °F 1018.5 in SW 9.7 mph 9.7 mph 58 % 0.0 in
10:52 15.0 °F 7.1 °F 1018.5 in SE 4.8 mph 12.9 mph 59 % 0.0 in
10:57 15.5 °F 6.8 °F 1018.5 in SSW 8.0 mph 12.9 mph 56 % 0.0 in
11:02 15.8 °F 6.2 °F 1018.5 in SSW 11.3 mph 11.3 mph 53 % 0.0 in
11:07 16.2 °F 6.1 °F 1018.5 in SW 12.9 mph 12.9 mph 51 % 0.0 in
11:12 16.7 °F 6.2 °F 1018.5 in WSW 19.3 mph 27.4 mph 50 % 0.0 in
11:17 16.9 °F 5.8 °F 1018.5 in WSW 8.0 mph 27.4 mph 48 % 0.0 in
11:22 16.7 °F 5.6 °F 1018.8 in WSW 11.3 mph 27.4 mph 48 % 0.0 in
11:27 16.5 °F 6.3 °F 1018.8 in SW 20.9 mph 27.4 mph 51 % 0.0 in
11:37 16.3 °F 6.4 °F 1018.8 in SW 16.1 mph 27.4 mph 52 % 0.0 in
11:42 16.2 °F 6.3 °F 1018.8 in SW 25.7 mph 30.6 mph 52 % 0.0 in
11:47 16.0 °F 6.7 °F 1018.8 in SW 19.3 mph 30.6 mph 54 % 0.0 in
11:52 15.8 °F 6.5 °F 1018.8 in WSW 11.3 mph 30.6 mph 54 % 0.0 in
12:02 15.9 °F 6.9 °F 1018.8 in WSW 11.3 mph 25.7 mph 55 % 0.0 in
12:12 16.3 °F 7.2 °F 1018.8 in SW 17.7 mph 27.4 mph 55 % 0.0 in
12:17 16.4 °F 7.6 °F 1018.8 in WSW 20.9 mph 27.4 mph 56 % 0.0 in
12:22 16.4 °F 7.9 °F 1018.8 in South 6.4 mph 27.4 mph 57 % 0.0 in
12:32 16.3 °F 8.5 °F 1018.8 in WSW 9.7 mph 35.4 mph 60 % 0.0 in
12:42 15.8 °F 8.3 °F 1018.8 in SSW 9.7 mph 29.0 mph 61 % 0.0 in
12:47 15.9 °F 8.4 °F 1018.8 in SW 9.7 mph 29.0 mph 61 % 0.0 in
12:52 15.9 °F 8.6 °F 1018.8 in WSW 11.3 mph 29.0 mph 62 % 0.0 in
13:02 15.6 °F 8.6 °F 1018.8 in West 9.7 mph 24.1 mph 63 % 0.0 in
13:07 15.4 °F 8.9 °F 1018.5 in West 4.8 mph 24.1 mph 65 % 0.0 in
13:12 15.4 °F 8.9 °F 1018.8 in SW 16.1 mph 19.3 mph 65 % 0.0 in
13:22 15.3 °F 8.8 °F 1018.8 in WSW 11.3 mph 19.3 mph 65 % 0.0 in
13:32 14.8 °F 9.4 °F 1018.8 in SW 12.9 mph 20.9 mph 70 % 0.0 in
13:37 14.7 °F 9.5 °F 1018.8 in SW 16.1 mph 20.9 mph 71 % 0.0 in
13:42 14.8 °F 9.4 °F 1018.8 in WSW 6.4 mph 19.3 mph 70 % 0.0 in
13:52 15.2 °F 10.0 °F 1018.5 in SW 8.0 mph 16.1 mph 71 % 0.0 in
14:02 15.7 °F 9.4 °F 1018.5 in SSW 12.9 mph 17.7 mph 66 % 0.0 in
14:07 15.7 °F 9.6 °F 1018.5 in SW 11.3 mph 17.7 mph 67 % 0.0 in
14:12 15.8 °F 9.7 °F 1018.8 in SSW 16.1 mph 20.9 mph 67 % 0.0 in
14:17 15.9 °F 9.6 °F 1018.8 in SSW 9.7 mph 22.5 mph 66 % 0.0 in
14:27 16.0 °F 9.7 °F 1018.8 in SSW 9.7 mph 24.1 mph 66 % 0.0 in
14:32 16.1 °F 9.5 °F 1018.8 in SW 14.5 mph 24.1 mph 65 % 0.0 in
14:37 15.9 °F 9.3 °F 1018.5 in SSW 8.0 mph 24.1 mph 65 % 0.0 in
14:42 15.9 °F 9.3 °F 1018.5 in SSW 9.7 mph 24.1 mph 65 % 0.0 in
14:47 15.9 °F 9.1 °F 1018.5 in SW 8.0 mph 22.5 mph 64 % 0.0 in
14:52 15.9 °F 9.3 °F 1018.5 in West 8.0 mph 22.5 mph 65 % 0.0 in
14:57 15.9 °F 9.3 °F 1018.5 in WSW 8.0 mph 20.9 mph 65 % 0.0 in
15:02 16.0 °F 9.7 °F 1018.5 in WSW 11.3 mph 20.9 mph 66 % 0.0 in
15:12 15.0 °F 9.8 °F 1018.5 in West 12.9 mph 25.7 mph 71 % 0.0 in
15:17 14.6 °F 10.0 °F 1018.5 in West 17.7 mph 25.7 mph 74 % 0.0 in
15:22 14.4 °F 10.2 °F 1018.5 in WSW 4.8 mph 25.7 mph 76 % 0.0 in
15:32 14.5 °F 9.9 °F 1018.5 in West 16.1 mph 25.7 mph 74 % 0.0 in
15:42 14.6 °F 9.8 °F 1018.2 in SW 6.4 mph 19.3 mph 73 % 0.0 in
15:47 14.7 °F 9.7 °F 1018.2 in WSW 9.7 mph 22.5 mph 72 % 0.0 in
15:52 14.9 °F 10.1 °F 1017.8 in SW 12.9 mph 22.5 mph 73 % 0.0 in
16:02 14.9 °F 9.7 °F 1017.8 in SW 19.3 mph 19.3 mph 71 % 0.0 in
16:12 15.0 °F 10.4 °F 1017.8 in SW 14.5 mph 20.9 mph 74 % 0.0 in
16:17 14.9 °F 9.7 °F 1017.8 in SW 14.5 mph 20.9 mph 71 % 0.0 in
16:22 14.9 °F 9.5 °F 1017.8 in SW 16.1 mph 20.9 mph 70 % 0.0 in
16:32 14.9 °F 9.7 °F 1017.8 in South 11.3 mph 22.5 mph 71 % 0.0 in
16:37 15.0 °F 10.0 °F 1017.8 in SW 12.9 mph 22.5 mph 72 % 0.0 in
16:42 15.0 °F 9.8 °F 1017.5 in SSW 8.0 mph 22.5 mph 71 % 0.0 in
16:47 15.1 °F 10.1 °F 1017.5 in SSW 11.3 mph 20.9 mph 72 % 0.0 in
16:52 15.1 °F 10.1 °F 1017.5 in SW 8.0 mph 20.9 mph 72 % 0.0 in
16:57 15.1 °F 9.9 °F 1017.5 in SSW 19.3 mph 20.9 mph 71 % 0.0 in
17:02 15.0 °F 10.0 °F 1017.5 in SSW 9.7 mph 20.9 mph 72 % 0.0 in
17:12 14.9 °F 9.9 °F 1017.5 in SW 8.0 mph 20.9 mph 72 % 0.0 in
17:17 14.9 °F 9.7 °F 1017.2 in SSW 14.5 mph 20.9 mph 71 % 0.0 in
17:22 14.8 °F 9.8 °F 1017.5 in SSW 9.7 mph 20.9 mph 72 % 0.0 in
17:32 14.7 °F 10.1 °F 1017.5 in SSW 4.8 mph 19.3 mph 74 % 0.0 in
17:42 14.4 °F 10.2 °F 1017.5 in SW 6.4 mph 17.7 mph 76 % 0.0 in
17:52 14.1 °F 10.7 °F 1017.2 in SW 6.4 mph 17.7 mph 80 % 0.0 in
17:57 13.9 °F 10.9 °F 1017.2 in SW 8.0 mph 17.7 mph 82 % 0.0 in
18:02 13.7 °F 10.9 °F 1017.2 in SW 3.2 mph 16.1 mph 83 % 0.3 in
18:12 13.5 °F 10.7 °F 1017.2 in SW 6.4 mph 12.9 mph 83 % 0.3 in
18:17 13.4 °F 10.6 °F 1017.2 in SW 4.8 mph 11.3 mph 83 % 0.3 in
18:22 13.4 °F 10.8 °F 1017.2 in SW 9.7 mph 11.3 mph 84 % 0.3 in
18:32 13.4 °F 10.9 °F 1016.8 in South 3.2 mph 11.3 mph 85 % 0.3 in
18:42 13.4 °F 11.3 °F 1016.8 in SW 6.4 mph 11.3 mph 87 % 0.3 in
18:52 13.4 °F 11.3 °F 1016.8 in SSW 4.8 mph 9.7 mph 87 % 0.3 in
19:02 13.3 °F 11.0 °F 1016.5 in South 1.6 mph 9.7 mph 86 % 0.3 in
19:12 13.2 °F 10.9 °F 1016.5 in Calm   6.4 mph 86 % 0.3 in
19:17 13.2 °F 10.9 °F 1016.5 in Calm   4.8 mph 86 % 0.3 in
19:22 13.2 °F 10.9 °F 1016.5 in Calm   3.2 mph 86 % 0.3 in
19:32 13.1 °F 11.0 °F 1016.5 in Calm   1.6 mph 87 % 0.3 in
19:42 13.0 °F 10.7 °F 1016.1 in Calm   1.6 mph 86 % 0.3 in
19:52 13.0 °F 10.9 °F 1016.1 in Calm     87 % 0.3 in
19:57 12.9 °F 10.6 °F 1016.1 in Calm     86 % 0.0 in
20:02 12.9 °F 10.6 °F 1016.1 in Calm     86 % 0.0 in
20:12 12.8 °F 10.5 °F 1016.1 in Calm     86 % 0.0 in
20:17 12.7 °F 10.6 °F 1016.1 in Calm     87 % 0.0 in
20:22 12.7 °F 10.6 °F 1016.1 in Calm   1.6 mph 87 % 0.0 in
20:32 12.6 °F 10.5 °F 1016.1 in Calm   1.6 mph 87 % 0.0 in
20:42 12.6 °F 10.5 °F 1016.1 in SW 1.6 mph   87 % 0.0 in
20:47 12.5 °F 10.6 °F 1016.1 in Calm   4.8 mph 88 % 0.0 in
20:52 12.5 °F 10.6 °F 1016.1 in Calm   4.8 mph 88 % 0.0 in
20:57 12.4 °F 10.5 °F 1016.1 in SSW 1.6 mph 4.8 mph 88 % 0.0 in
21:02 12.3 °F 10.5 °F 1016.1 in Calm   4.8 mph 89 % 0.0 in
21:12 12.2 °F 10.6 °F 1016.1 in Calm   3.2 mph 90 % 0.0 in
21:17 12.1 °F 10.5 °F 1016.1 in Calm   1.6 mph 90 % 0.0 in
21:22 12.1 °F 10.7 °F 1016.1 in Calm   1.6 mph 91 % 0.3 in
21:32 12.0 °F 10.6 °F 1016.5 in Calm   1.6 mph 91 % 0.3 in
21:42 11.9 °F 10.6 °F 1016.1 in Calm   3.2 mph 92 % 0.5 in
21:47 11.9 °F 10.8 °F 1016.1 in Calm   3.2 mph 93 % 0.5 in
21:52 11.8 °F 10.7 °F 1016.1 in Calm   3.2 mph 93 % 0.5 in
21:57 11.8 °F 10.7 °F 1016.1 in Calm   3.2 mph 93 % 0.5 in
22:02 11.8 °F 10.7 °F 1016.1 in Calm   3.2 mph 93 % 0.5 in
22:12 11.7 °F 10.6 °F 1016.1 in Calm   3.2 mph 93 % 0.5 in
22:17 11.6 °F 10.7 °F 1015.8 in Calm   1.6 mph 94 % 0.5 in
22:22 11.6 °F 10.7 °F 1015.8 in Calm   1.6 mph 94 % 0.5 in
22:32 11.6 °F 10.7 °F 1015.8 in Calm   1.6 mph 94 % 0.5 in
22:37 11.6 °F 10.7 °F 1015.8 in SE 1.6 mph 3.2 mph 94 % 0.5 in
22:42 11.6 °F 10.7 °F 1015.8 in Calm   3.2 mph 94 % 0.5 in
22:52 11.5 °F 10.6 °F 1015.8 in SSW 3.2 mph 4.8 mph 94 % 0.3 in
22:57 11.5 °F 10.6 °F 1015.8 in SSW 1.6 mph 8.0 mph 94 % 0.5 in
23:02 11.4 °F 10.5 °F 1015.8 in SSW 3.2 mph 8.0 mph 94 % 0.5 in
23:12 11.4 °F 10.6 °F 1015.8 in SSW 3.2 mph 8.0 mph 95 % 1.0 in
23:17 11.4 °F 10.6 °F 1015.8 in South 4.8 mph 6.4 mph 95 % 1.5 in
23:22 11.4 °F 10.6 °F 1015.8 in SSW 4.8 mph 6.4 mph 95 % 1.5 in
23:32 11.3 °F 10.5 °F 1015.8 in SW 3.2 mph 9.7 mph 95 % 1.8 in
23:42 11.3 °F 10.5 °F 1015.8 in South 3.2 mph 9.7 mph 95 % 2.0 in
23:47 11.3 °F 10.5 °F 1015.8 in SSW 6.4 mph 8.0 mph 95 % 2.3 in
23:52 11.3 °F 10.5 °F 1015.8 in SSW 3.2 mph 8.0 mph 95 % 2.3 in
23:57 11.2 °F 10.4 °F 1015.5 in SSW 3.2 mph 9.7 mph 95 % 2.3 in
Meteo18
Compliments of Weather Underground - 4 mb

Script developed by  Jim McMurry - jmcmurry@mwt.net Adapted for the template by  Wim van der Kuil - Leuven-Template.eu

You find our weather info also at:

European Weather Network

Weather Underground

Equipment we use:

Weather-station
Davis Vue

Weather-program
Meteobridge

Weather-server
Raspberry PI 2 B+

Provider
1 and 1

Davis Vue

Meteobridge

Raspberry PI 2 B+

1 and 1